sensor_id;sensor_type;location;lat;lon;timestamp;P1;durP1;ratioP1;P2;durP2;ratioP2
61638;SDS011;47544;52.484;4.658;2023-08-12T00:00:04;9.73;;;3.50;;
61638;SDS011;47544;52.484;4.658;2023-08-12T00:00:21;10.15;;;3.70;;
61638;SDS011;47544;52.484;4.658;2023-08-12T00:00:34;8.57;;;3.38;;
61638;SDS011;47544;52.484;4.658;2023-08-12T00:00:47;7.85;;;3.22;;
61638;SDS011;47544;52.484;4.658;2023-08-12T00:00:58;7.40;;;3.28;;
61638;SDS011;47544;52.484;4.658;2023-08-12T00:01:09;7.32;;;3.28;;
61638;SDS011;47544;52.484;4.658;2023-08-12T00:01:21;7.60;;;3.20;;
61638;SDS011;47544;52.484;4.658;2023-08-12T00:01:32;7.55;;;3.10;;
61638;SDS011;47544;52.484;4.658;2023-08-12T00:01:43;8.18;;;3.22;;
61638;SDS011;47544;52.484;4.658;2023-08-12T00:01:54;8.85;;;3.20;;
61638;SDS011;47544;52.484;4.658;2023-08-12T00:02:09;8.15;;;3.08;;
61638;SDS011;47544;52.484;4.658;2023-08-12T00:02:20;8.55;;;3.30;;
61638;SDS011;47544;52.484;4.658;2023-08-12T00:02:32;8.93;;;3.50;;
61638;SDS011;47544;52.484;4.658;2023-08-12T00:02:44;8.40;;;3.17;;
61638;SDS011;47544;52.484;4.658;2023-08-12T00:02:55;8.15;;;3.30;;
61638;SDS011;47544;52.484;4.658;2023-08-12T00:03:11;8.05;;;3.22;;
61638;SDS011;47544;52.484;4.658;2023-08-12T00:03:23;8.77;;;3.10;;
61638;SDS011;47544;52.484;4.658;2023-08-12T00:03:36;8.88;;;3.10;;
61638;SDS011;47544;52.484;4.658;2023-08-12T00:03:47;9.43;;;3.40;;
61638;SDS011;47544;52.484;4.658;2023-08-12T00:03:58;9.95;;;3.55;;
61638;SDS011;47544;52.484;4.658;2023-08-12T00:04:09;9.32;;;3.65;;
61638;SDS011;47544;52.484;4.658;2023-08-12T00:04:22;9.40;;;3.55;;
61638;SDS011;47544;52.484;4.658;2023-08-12T00:04:37;9.52;;;3.78;;
61638;SDS011;47544;52.484;4.658;2023-08-12T00:04:49;7.95;;;3.55;;
61638;SDS011;47544;52.484;4.658;2023-08-12T00:05:00;6.97;;;3.08;;
61638;SDS011;47544;52.484;4.658;2023-08-12T00:05:12;7.45;;;2.90;;
61638;SDS011;47544;52.484;4.658;2023-08-12T00:05:23;8.23;;;3.00;;
61638;SDS011;47544;52.484;4.658;2023-08-12T00:05:35;8.80;;;3.28;;
61638;SDS011;47544;52.484;4.658;2023-08-12T00:05:46;8.35;;;3.40;;
61638;SDS011;47544;52.484;4.658;2023-08-12T00:05:59;8.07;;;3.40;;
61638;SDS011;47544;52.484;4.658;2023-08-12T00:06:11;8.30;;;3.40;;
61638;SDS011;47544;52.484;4.658;2023-08-12T00:06:30;7.78;;;3.42;;
61638;SDS011;47544;52.484;4.658;2023-08-12T00:06:41;9.00;;;3.33;;
61638;SDS011;47544;52.484;4.658;2023-08-12T00:06:52;8.85;;;3.15;;
61638;SDS011;47544;52.484;4.658;2023-08-12T00:07:03;8.38;;;3.00;;
61638;SDS011;47544;52.484;4.658;2023-08-12T00:07:15;7.50;;;2.95;;
61638;SDS011;47544;52.484;4.658;2023-08-12T00:07:26;8.00;;;3.08;;
61638;SDS011;47544;52.484;4.658;2023-08-12T00:07:37;8.70;;;3.30;;
61638;SDS011;47544;52.484;4.658;2023-08-12T00:07:50;7.78;;;3.20;;
61638;SDS011;47544;52.484;4.658;2023-08-12T00:08:01;7.82;;;3.30;;
61638;SDS011;47544;52.484;4.658;2023-08-12T00:08:14;8.07;;;3.60;;
61638;SDS011;47544;52.484;4.658;2023-08-12T00:08:25;7.90;;;3.55;;
61638;SDS011;47544;52.484;4.658;2023-08-12T00:08:36;8.27;;;3.40;;
61638;SDS011;47544;52.484;4.658;2023-08-12T00:08:47;7.80;;;3.40;;
61638;SDS011;47544;52.484;4.658;2023-08-12T00:08:58;9.10;;;3.20;;
61638;SDS011;47544;52.484;4.658;2023-08-12T00:09:09;7.93;;;2.92;;
61638;SDS011;47544;52.484;4.658;2023-08-12T00:09:22;7.78;;;2.90;;
61638;SDS011;47544;52.484;4.658;2023-08-12T00:09:34;8.00;;;3.17;;
61638;SDS011;47544;52.484;4.658;2023-08-12T00:09:46;7.90;;;3.28;;
61638;SDS011;47544;52.484;4.658;2023-08-12T00:09:58;7.30;;;3.30;;
61638;SDS011;47544;52.484;4.658;2023-08-12T00:10:09;6.90;;;3.30;;
61638;SDS011;47544;52.484;4.658;2023-08-12T00:10:20;7.53;;;3.22;;
61638;SDS011;47544;52.484;4.658;2023-08-12T00:10:32;8.57;;;3.40;;
61638;SDS011;47544;52.484;4.658;2023-08-12T00:10:43;9.30;;;3.67;;
61638;SDS011;47544;52.484;4.658;2023-08-12T00:10:54;8.23;;;3.50;;
61638;SDS011;47544;52.484;4.658;2023-08-12T00:11:05;7.85;;;3.25;;
61638;SDS011;47544;52.484;4.658;2023-08-12T00:11:16;8.07;;;3.30;;
61638;SDS011;47544;52.484;4.658;2023-08-12T00:11:28;8.30;;;3.25;;
61638;SDS011;47544;52.484;4.658;2023-08-12T00:11:39;7.78;;;3.20;;
61638;SDS011;47544;52.484;4.658;2023-08-12T00:11:52;7.90;;;3.13;;
61638;SDS011;47544;52.484;4.658;2023-08-12T00:12:04;8.93;;;3.47;;
61638;SDS011;47544;52.484;4.658;2023-08-12T00:12:15;8.07;;;3.50;;
61638;SDS011;47544;52.484;4.658;2023-08-12T00:12:26;7.15;;;3.30;;
61638;SDS011;47544;52.484;4.658;2023-08-12T00:12:41;6.10;;;2.95;;
61638;SDS011;47544;52.484;4.658;2023-08-12T00:12:52;6.95;;;3.00;;
61638;SDS011;47544;52.484;4.658;2023-08-12T00:13:03;7.90;;;3.13;;
61638;SDS011;47544;52.484;4.658;2023-08-12T00:13:14;8.63;;;3.20;;
61638;SDS011;47544;52.484;4.658;2023-08-12T00:13:28;8.77;;;3.28;;
61638;SDS011;47544;52.484;4.658;2023-08-12T00:13:41;8.55;;;3.20;;
61638;SDS011;47544;52.484;4.658;2023-08-12T00:13:54;8.35;;;3.20;;
61638;SDS011;47544;52.484;4.658;2023-08-12T00:14:05;8.57;;;3.35;;
61638;SDS011;47544;52.484;4.658;2023-08-12T00:14:17;8.77;;;3.40;;
61638;SDS011;47544;52.484;4.658;2023-08-12T00:14:29;9.63;;;3.80;;
61638;SDS011;47544;52.484;4.658;2023-08-12T00:14:40;9.02;;;3.97;;
61638;SDS011;47544;52.484;4.658;2023-08-12T00:14:51;9.75;;;3.80;;
61638;SDS011;47544;52.484;4.658;2023-08-12T00:15:03;8.65;;;3.22;;
61638;SDS011;47544;52.484;4.658;2023-08-12T00:15:22;7.72;;;3.10;;
61638;SDS011;47544;52.484;4.658;2023-08-12T00:15:33;7.88;;;3.20;;
61638;SDS011;47544;52.484;4.658;2023-08-12T00:15:45;8.93;;;3.28;;
61638;SDS011;47544;52.484;4.658;2023-08-12T00:15:57;10.18;;;3.50;;
61638;SDS011;47544;52.484;4.658;2023-08-12T00:16:08;10.77;;;3.70;;
61638;SDS011;47544;52.484;4.658;2023-08-12T00:16:20;10.32;;;3.70;;
61638;SDS011;47544;52.484;4.658;2023-08-12T00:16:31;9.85;;;3.50;;
61638;SDS011;47544;52.484;4.658;2023-08-12T00:16:44;8.82;;;3.35;;
61638;SDS011;47544;52.484;4.658;2023-08-12T00:16:57;7.82;;;3.50;;
61638;SDS011;47544;52.484;4.658;2023-08-12T00:17:08;8.27;;;3.40;;
61638;SDS011;47544;52.484;4.658;2023-08-12T00:17:19;8.25;;;3.25;;
61638;SDS011;47544;52.484;4.658;2023-08-12T00:17:30;7.85;;;3.05;;
61638;SDS011;47544;52.484;4.658;2023-08-12T00:17:41;8.02;;;3.10;;
61638;SDS011;47544;52.484;4.658;2023-08-12T00:17:52;9.40;;;3.05;;
61638;SDS011;47544;52.484;4.658;2023-08-12T00:18:11;9.23;;;3.05;;
61638;SDS011;47544;52.484;4.658;2023-08-12T00:18:23;8.95;;;3.35;;
61638;SDS011;47544;52.484;4.658;2023-08-12T00:18:35;9.40;;;3.40;;
61638;SDS011;47544;52.484;4.658;2023-08-12T00:18:48;9.13;;;3.17;;
61638;SDS011;47544;52.484;4.658;2023-08-12T00:18:59;9.93;;;3.20;;
61638;SDS011;47544;52.484;4.658;2023-08-12T00:19:11;9.02;;;3.20;;
61638;SDS011;47544;52.484;4.658;2023-08-12T00:19:23;8.27;;;3.17;;
61638;SDS011;47544;52.484;4.658;2023-08-12T00:19:35;7.40;;;2.95;;
61638;SDS011;47544;52.484;4.658;2023-08-12T00:19:46;8.88;;;3.08;;
61638;SDS011;47544;52.484;4.658;2023-08-12T00:19:57;9.52;;;3.20;;
61638;SDS011;47544;52.484;4.658;2023-08-12T00:20:11;10.18;;;3.30;;
61638;SDS011;47544;52.484;4.658;2023-08-12T00:20:23;8.30;;;3.20;;
61638;SDS011;47544;52.484;4.658;2023-08-12T00:20:35;7.63;;;3.13;;
61638;SDS011;47544;52.484;4.658;2023-08-12T00:20:46;7.50;;;3.05;;
61638;SDS011;47544;52.484;4.658;2023-08-12T00:20:57;6.82;;;2.92;;
61638;SDS011;47544;52.484;4.658;2023-08-12T00:21:12;6.75;;;2.85;;
61638;SDS011;47544;52.484;4.658;2023-08-12T00:21:24;7.47;;;3.00;;
61638;SDS011;47544;52.484;4.658;2023-08-12T00:21:36;8.38;;;3.28;;
61638;SDS011;47544;52.484;4.658;2023-08-12T00:21:47;7.05;;;2.90;;
61638;SDS011;47544;52.484;4.658;2023-08-12T00:22:00;6.25;;;2.80;;
61638;SDS011;47544;52.484;4.658;2023-08-12T00:22:11;6.13;;;2.75;;
61638;SDS011;47544;52.484;4.658;2023-08-12T00:22:23;7.50;;;3.25;;
61638;SDS011;47544;52.484;4.658;2023-08-12T00:22:35;8.10;;;3.42;;
61638;SDS011;47544;52.484;4.658;2023-08-12T00:22:46;9.25;;;3.60;;
61638;SDS011;47544;52.484;4.658;2023-08-12T00:22:57;8.82;;;3.47;;
61638;SDS011;47544;52.484;4.658;2023-08-12T00:23:11;7.85;;;3.35;;
61638;SDS011;47544;52.484;4.658;2023-08-12T00:23:22;7.57;;;3.40;;
61638;SDS011;47544;52.484;4.658;2023-08-12T00:23:37;7.30;;;3.33;;
61638;SDS011;47544;52.484;4.658;2023-08-12T00:23:50;6.50;;;3.00;;
61638;SDS011;47544;52.484;4.658;2023-08-12T00:24:01;6.40;;;3.17;;
61638;SDS011;47544;52.484;4.658;2023-08-12T00:24:12;8.35;;;3.40;;
61638;SDS011;47544;52.484;4.658;2023-08-12T00:24:23;8.13;;;3.33;;
61638;SDS011;47544;52.484;4.658;2023-08-12T00:24:34;8.18;;;3.13;;
61638;SDS011;47544;52.484;4.658;2023-08-12T00:24:49;6.90;;;2.97;;
61638;SDS011;47544;52.484;4.658;2023-08-12T00:25:01;7.70;;;3.22;;
61638;SDS011;47544;52.484;4.658;2023-08-12T00:25:12;7.93;;;3.00;;
61638;SDS011;47544;52.484;4.658;2023-08-12T00:25:23;7.63;;;2.97;;
61638;SDS011;47544;52.484;4.658;2023-08-12T00:25:34;8.23;;;3.20;;
61638;SDS011;47544;52.484;4.658;2023-08-12T00:25:45;9.25;;;3.40;;
61638;SDS011;47544;52.484;4.658;2023-08-12T00:25:57;8.50;;;3.42;;
61638;SDS011;47544;52.484;4.658;2023-08-12T00:26:08;8.25;;;3.25;;
61638;SDS011;47544;52.484;4.658;2023-08-12T00:26:21;7.60;;;3.38;;
61638;SDS011;47544;52.484;4.658;2023-08-12T00:26:31;8.25;;;3.30;;
61638;SDS011;47544;52.484;4.658;2023-08-12T00:26:43;8.60;;;3.20;;
61638;SDS011;47544;52.484;4.658;2023-08-12T00:26:55;8.07;;;3.05;;
61638;SDS011;47544;52.484;4.658;2023-08-12T00:27:06;7.55;;;2.90;;
61638;SDS011;47544;52.484;4.658;2023-08-12T00:27:19;6.47;;;3.00;;
61638;SDS011;47544;52.484;4.658;2023-08-12T00:27:30;7.43;;;3.17;;
61638;SDS011;47544;52.484;4.658;2023-08-12T00:27:41;8.15;;;3.30;;
61638;SDS011;47544;52.484;4.658;2023-08-12T00:27:52;8.98;;;3.40;;
61638;SDS011;47544;52.484;4.658;2023-08-12T00:28:04;8.65;;;3.38;;
61638;SDS011;47544;52.484;4.658;2023-08-12T00:28:15;8.30;;;3.33;;
61638;SDS011;47544;52.484;4.658;2023-08-12T00:28:26;7.22;;;3.40;;
61638;SDS011;47544;52.484;4.658;2023-08-12T00:28:38;7.40;;;3.45;;
61638;SDS011;47544;52.484;4.658;2023-08-12T00:28:49;8.00;;;3.33;;
61638;SDS011;47544;52.484;4.658;2023-08-12T00:29:00;9.07;;;3.33;;
61638;SDS011;47544;52.484;4.658;2023-08-12T00:29:11;9.38;;;3.33;;
61638;SDS011;47544;52.484;4.658;2023-08-12T00:29:25;8.73;;;3.28;;
61638;SDS011;47544;52.484;4.658;2023-08-12T00:29:36;7.18;;;3.10;;
61638;SDS011;47544;52.484;4.658;2023-08-12T00:29:48;8.90;;;3.22;;
61638;SDS011;47544;52.484;4.658;2023-08-12T00:29:59;9.02;;;3.30;;
61638;SDS011;47544;52.484;4.658;2023-08-12T00:30:12;8.88;;;3.30;;
61638;SDS011;47544;52.484;4.658;2023-08-12T00:30:25;7.35;;;3.17;;
61638;SDS011;47544;52.484;4.658;2023-08-12T00:30:36;7.03;;;3.10;;
61638;SDS011;47544;52.484;4.658;2023-08-12T00:30:47;7.18;;;2.92;;
61638;SDS011;47544;52.484;4.658;2023-08-12T00:30:58;7.80;;;3.00;;
61638;SDS011;47544;52.484;4.658;2023-08-12T00:31:10;7.90;;;3.13;;
61638;SDS011;47544;52.484;4.658;2023-08-12T00:31:21;9.15;;;3.40;;
61638;SDS011;47544;52.484;4.658;2023-08-12T00:31:32;9.45;;;3.25;;
61638;SDS011;47544;52.484;4.658;2023-08-12T00:31:43;9.85;;;3.38;;
61638;SDS011;47544;52.484;4.658;2023-08-12T00:31:54;9.23;;;3.40;;
61638;SDS011;47544;52.484;4.658;2023-08-12T00:32:08;8.35;;;3.40;;
61638;SDS011;47544;52.484;4.658;2023-08-12T00:32:21;9.35;;;3.50;;
61638;SDS011;47544;52.484;4.658;2023-08-12T00:32:34;8.65;;;3.67;;
61638;SDS011;47544;52.484;4.658;2023-08-12T00:32:45;8.60;;;3.80;;
61638;SDS011;47544;52.484;4.658;2023-08-12T00:32:56;8.27;;;3.80;;
61638;SDS011;47544;52.484;4.658;2023-08-12T00:33:07;8.35;;;3.53;;
61638;SDS011;47544;52.484;4.658;2023-08-12T00:33:18;7.33;;;3.40;;
61638;SDS011;47544;52.484;4.658;2023-08-12T00:33:33;6.80;;;3.17;;
61638;SDS011;47544;52.484;4.658;2023-08-12T00:33:44;7.93;;;3.33;;
61638;SDS011;47544;52.484;4.658;2023-08-12T00:33:56;8.95;;;3.53;;
61638;SDS011;47544;52.484;4.658;2023-08-12T00:34:07;8.63;;;3.55;;
61638;SDS011;47544;52.484;4.658;2023-08-12T00:34:21;8.73;;;3.40;;
61638;SDS011;47544;52.484;4.658;2023-08-12T00:34:32;9.38;;;3.40;;
61638;SDS011;47544;52.484;4.658;2023-08-12T00:34:45;10.55;;;3.80;;
61638;SDS011;47544;52.484;4.658;2023-08-12T00:34:56;9.23;;;3.80;;
61638;SDS011;47544;52.484;4.658;2023-08-12T00:35:08;9.77;;;3.67;;
61638;SDS011;47544;52.484;4.658;2023-08-12T00:35:20;8.50;;;3.30;;
61638;SDS011;47544;52.484;4.658;2023-08-12T00:35:31;9.88;;;3.30;;
61638;SDS011;47544;52.484;4.658;2023-08-12T00:35:43;9.30;;;3.42;;
61638;SDS011;47544;52.484;4.658;2023-08-12T00:35:55;8.38;;;3.70;;
61638;SDS011;47544;52.484;4.658;2023-08-12T00:36:06;8.68;;;3.80;;
61638;SDS011;47544;52.484;4.658;2023-08-12T00:36:17;8.95;;;3.80;;
61638;SDS011;47544;52.484;4.658;2023-08-12T00:36:28;8.48;;;3.63;;
61638;SDS011;47544;52.484;4.658;2023-08-12T00:36:39;8.25;;;3.50;;
61638;SDS011;47544;52.484;4.658;2023-08-12T00:36:50;8.75;;;3.53;;
61638;SDS011;47544;52.484;4.658;2023-08-12T00:37:01;9.55;;;3.60;;
61638;SDS011;47544;52.484;4.658;2023-08-12T00:37:13;9.73;;;3.60;;
61638;SDS011;47544;52.484;4.658;2023-08-12T00:37:24;8.98;;;3.72;;
61638;SDS011;47544;52.484;4.658;2023-08-12T00:37:35;7.15;;;3.58;;
61638;SDS011;47544;52.484;4.658;2023-08-12T00:37:47;8.50;;;3.50;;
61638;SDS011;47544;52.484;4.658;2023-08-12T00:37:58;9.15;;;3.42;;
61638;SDS011;47544;52.484;4.658;2023-08-12T00:38:10;10.57;;;3.70;;
61638;SDS011;47544;52.484;4.658;2023-08-12T00:38:21;8.88;;;3.45;;
61638;SDS011;47544;52.484;4.658;2023-08-12T00:38:32;8.68;;;3.42;;
61638;SDS011;47544;52.484;4.658;2023-08-12T00:38:43;8.83;;;3.40;;
61638;SDS011;47544;52.484;4.658;2023-08-12T00:38:54;10.05;;;3.70;;
61638;SDS011;47544;52.484;4.658;2023-08-12T00:39:06;10.90;;;3.60;;
61638;SDS011;47544;52.484;4.658;2023-08-12T00:39:17;9.77;;;3.55;;
61638;SDS011;47544;52.484;4.658;2023-08-12T00:39:27;8.93;;;3.40;;
61638;SDS011;47544;52.484;4.658;2023-08-12T00:39:39;7.28;;;3.35;;
61638;SDS011;47544;52.484;4.658;2023-08-12T00:39:50;7.78;;;3.50;;
61638;SDS011;47544;52.484;4.658;2023-08-12T00:40:04;8.85;;;3.90;;
61638;SDS011;47544;52.484;4.658;2023-08-12T00:40:17;8.95;;;3.90;;
61638;SDS011;47544;52.484;4.658;2023-08-12T00:40:28;10.13;;;4.10;;
61638;SDS011;47544;52.484;4.658;2023-08-12T00:40:39;10.02;;;3.75;;
61638;SDS011;47544;52.484;4.658;2023-08-12T00:40:50;10.57;;;3.47;;
61638;SDS011;47544;52.484;4.658;2023-08-12T00:41:03;10.02;;;3.53;;
61638;SDS011;47544;52.484;4.658;2023-08-12T00:41:14;9.52;;;3.67;;
61638;SDS011;47544;52.484;4.658;2023-08-12T00:41:25;9.00;;;3.55;;
61638;SDS011;47544;52.484;4.658;2023-08-12T00:41:37;8.80;;;3.47;;
61638;SDS011;47544;52.484;4.658;2023-08-12T00:41:48;9.00;;;3.53;;
61638;SDS011;47544;52.484;4.658;2023-08-12T00:41:59;8.75;;;3.50;;
61638;SDS011;47544;52.484;4.658;2023-08-12T00:42:17;8.15;;;3.75;;
61638;SDS011;47544;52.484;4.658;2023-08-12T00:42:30;7.97;;;3.70;;
61638;SDS011;47544;52.484;4.658;2023-08-12T00:42:41;8.13;;;3.70;;
61638;SDS011;47544;52.484;4.658;2023-08-12T00:42:52;8.05;;;3.75;;
61638;SDS011;47544;52.484;4.658;2023-08-12T00:43:03;9.15;;;3.88;;
61638;SDS011;47544;52.484;4.658;2023-08-12T00:43:14;8.98;;;3.80;;
61638;SDS011;47544;52.484;4.658;2023-08-12T00:43:25;9.52;;;3.63;;
61638;SDS011;47544;52.484;4.658;2023-08-12T00:43:38;8.65;;;3.70;;
61638;SDS011;47544;52.484;4.658;2023-08-12T00:43:56;7.57;;;3.42;;
61638;SDS011;47544;52.484;4.658;2023-08-12T00:44:07;7.03;;;3.35;;
61638;SDS011;47544;52.484;4.658;2023-08-12T00:44:19;7.35;;;3.45;;
61638;SDS011;47544;52.484;4.658;2023-08-12T00:44:33;7.57;;;3.15;;
61638;SDS011;47544;52.484;4.658;2023-08-12T00:44:44;6.82;;;3.00;;
61638;SDS011;47544;52.484;4.658;2023-08-12T00:44:55;6.85;;;3.25;;
61638;SDS011;47544;52.484;4.658;2023-08-12T00:45:08;7.07;;;3.25;;
61638;SDS011;47544;52.484;4.658;2023-08-12T00:45:24;8.27;;;3.30;;
61638;SDS011;47544;52.484;4.658;2023-08-12T00:45:38;9.20;;;3.45;;
61638;SDS011;47544;52.484;4.658;2023-08-12T00:45:49;9.30;;;3.50;;
61638;SDS011;47544;52.484;4.658;2023-08-12T00:46:00;8.93;;;3.50;;
61638;SDS011;47544;52.484;4.658;2023-08-12T00:46:12;8.27;;;3.50;;
61638;SDS011;47544;52.484;4.658;2023-08-12T00:46:23;7.78;;;3.50;;
61638;SDS011;47544;52.484;4.658;2023-08-12T00:46:36;7.43;;;3.42;;
61638;SDS011;47544;52.484;4.658;2023-08-12T00:46:48;6.55;;;3.38;;
61638;SDS011;47544;52.484;4.658;2023-08-12T00:47:00;7.95;;;3.30;;
61638;SDS011;47544;52.484;4.658;2023-08-12T00:47:15;8.07;;;3.35;;
61638;SDS011;47544;52.484;4.658;2023-08-12T00:47:27;8.50;;;3.42;;
61638;SDS011;47544;52.484;4.658;2023-08-12T00:47:39;8.45;;;3.45;;
61638;SDS011;47544;52.484;4.658;2023-08-12T00:47:53;7.45;;;3.38;;
61638;SDS011;47544;52.484;4.658;2023-08-12T00:48:04;6.53;;;3.05;;
61638;SDS011;47544;52.484;4.658;2023-08-12T00:48:15;6.90;;;3.13;;
61638;SDS011;47544;52.484;4.658;2023-08-12T00:48:27;7.82;;;3.17;;
61638;SDS011;47544;52.484;4.658;2023-08-12T00:48:41;9.13;;;3.33;;
61638;SDS011;47544;52.484;4.658;2023-08-12T00:48:52;8.15;;;3.38;;
61638;SDS011;47544;52.484;4.658;2023-08-12T00:49:03;8.13;;;3.15;;
61638;SDS011;47544;52.484;4.658;2023-08-12T00:49:15;9.38;;;3.00;;
61638;SDS011;47544;52.484;4.658;2023-08-12T00:49:26;10.02;;;3.10;;
61638;SDS011;47544;52.484;4.658;2023-08-12T00:49:38;7.75;;;3.13;;
61638;SDS011;47544;52.484;4.658;2023-08-12T00:49:50;6.45;;;2.95;;
61638;SDS011;47544;52.484;4.658;2023-08-12T00:50:02;7.68;;;2.70;;
61638;SDS011;47544;52.484;4.658;2023-08-12T00:50:13;8.55;;;2.90;;
61638;SDS011;47544;52.484;4.658;2023-08-12T00:50:25;6.80;;;2.95;;
61638;SDS011;47544;52.484;4.658;2023-08-12T00:50:36;6.95;;;3.33;;
61638;SDS011;47544;52.484;4.658;2023-08-12T00:50:48;7.07;;;3.40;;
61638;SDS011;47544;52.484;4.658;2023-08-12T00:51:00;7.50;;;3.47;;
61638;SDS011;47544;52.484;4.658;2023-08-12T00:51:11;7.50;;;3.30;;
61638;SDS011;47544;52.484;4.658;2023-08-12T00:51:22;6.45;;;3.15;;
61638;SDS011;47544;52.484;4.658;2023-08-12T00:51:34;6.40;;;3.08;;
61638;SDS011;47544;52.484;4.658;2023-08-12T00:51:46;7.57;;;3.35;;
61638;SDS011;47544;52.484;4.658;2023-08-12T00:51:59;9.18;;;3.67;;
61638;SDS011;47544;52.484;4.658;2023-08-12T00:52:11;9.43;;;3.40;;
61638;SDS011;47544;52.484;4.658;2023-08-12T00:52:23;8.85;;;3.30;;
61638;SDS011;47544;52.484;4.658;2023-08-12T00:52:35;7.75;;;3.28;;
61638;SDS011;47544;52.484;4.658;2023-08-12T00:52:46;7.45;;;3.40;;
61638;SDS011;47544;52.484;4.658;2023-08-12T00:52:58;7.15;;;3.50;;
61638;SDS011;47544;52.484;4.658;2023-08-12T00:53:09;7.30;;;3.35;;
61638;SDS011;47544;52.484;4.658;2023-08-12T00:53:21;7.43;;;3.28;;
61638;SDS011;47544;52.484;4.658;2023-08-12T00:53:32;7.65;;;3.10;;
61638;SDS011;47544;52.484;4.658;2023-08-12T00:53:44;7.07;;;2.90;;
61638;SDS011;47544;52.484;4.658;2023-08-12T00:53:57;6.55;;;2.90;;
61638;SDS011;47544;52.484;4.658;2023-08-12T00:54:10;6.85;;;3.03;;
61638;SDS011;47544;52.484;4.658;2023-08-12T00:54:24;7.93;;;3.13;;
61638;SDS011;47544;52.484;4.658;2023-08-12T00:54:40;7.20;;;3.20;;
61638;SDS011;47544;52.484;4.658;2023-08-12T00:54:52;6.40;;;3.15;;
61638;SDS011;47544;52.484;4.658;2023-08-12T00:55:04;6.43;;;3.13;;
61638;SDS011;47544;52.484;4.658;2023-08-12T00:55:15;7.30;;;3.33;;
61638;SDS011;47544;52.484;4.658;2023-08-12T00:55:27;7.75;;;3.50;;
61638;SDS011;47544;52.484;4.658;2023-08-12T00:55:38;8.07;;;3.30;;
61638;SDS011;47544;52.484;4.658;2023-08-12T00:55:50;8.10;;;3.30;;
61638;SDS011;47544;52.484;4.658;2023-08-12T00:56:01;8.10;;;3.38;;
61638;SDS011;47544;52.484;4.658;2023-08-12T00:56:15;8.68;;;3.25;;
61638;SDS011;47544;52.484;4.658;2023-08-12T00:56:26;7.88;;;2.95;;
61638;SDS011;47544;52.484;4.658;2023-08-12T00:56:38;7.78;;;3.03;;
61638;SDS011;47544;52.484;4.658;2023-08-12T00:56:53;7.22;;;3.05;;
61638;SDS011;47544;52.484;4.658;2023-08-12T00:57:04;7.63;;;3.08;;
61638;SDS011;47544;52.484;4.658;2023-08-12T00:57:16;8.38;;;3.30;;
61638;SDS011;47544;52.484;4.658;2023-08-12T00:57:27;8.07;;;3.40;;
61638;SDS011;47544;52.484;4.658;2023-08-12T00:57:39;7.30;;;3.20;;
61638;SDS011;47544;52.484;4.658;2023-08-12T00:57:50;6.25;;;3.00;;
61638;SDS011;47544;52.484;4.658;2023-08-12T00:58:02;6.68;;;2.92;;
61638;SDS011;47544;52.484;4.658;2023-08-12T00:58:15;7.45;;;2.97;;
61638;SDS011;47544;52.484;4.658;2023-08-12T00:58:28;6.15;;;2.75;;
61638;SDS011;47544;52.484;4.658;2023-08-12T00:58:39;7.32;;;2.97;;
61638;SDS011;47544;52.484;4.658;2023-08-12T00:58:50;7.22;;;2.90;;
61638;SDS011;47544;52.484;4.658;2023-08-12T00:59:01;7.03;;;3.03;;
61638;SDS011;47544;52.484;4.658;2023-08-12T00:59:13;7.25;;;2.97;;
61638;SDS011;47544;52.484;4.658;2023-08-12T00:59:25;9.35;;;3.20;;
61638;SDS011;47544;52.484;4.658;2023-08-12T00:59:37;10.18;;;3.58;;
61638;SDS011;47544;52.484;4.658;2023-08-12T00:59:51;10.13;;;3.70;;
61638;SDS011;47544;52.484;4.658;2023-08-12T01:00:02;8.45;;;3.22;;
61638;SDS011;47544;52.484;4.658;2023-08-12T01:00:23;7.68;;;3.30;;
61638;SDS011;47544;52.484;4.658;2023-08-12T01:00:35;8.07;;;3.22;;
61638;SDS011;47544;52.484;4.658;2023-08-12T01:00:47;8.50;;;3.30;;
61638;SDS011;47544;52.484;4.658;2023-08-12T01:00:58;7.88;;;3.35;;
61638;SDS011;47544;52.484;4.658;2023-08-12T01:01:09;7.63;;;3.25;;
61638;SDS011;47544;52.484;4.658;2023-08-12T01:01:21;7.70;;;3.10;;
61638;SDS011;47544;52.484;4.658;2023-08-12T01:01:32;8.02;;;3.05;;
61638;SDS011;47544;52.484;4.658;2023-08-12T01:01:43;7.65;;;3.10;;
61638;SDS011;47544;52.484;4.658;2023-08-12T01:01:57;7.75;;;3.00;;
61638;SDS011;47544;52.484;4.658;2023-08-12T01:02:09;7.13;;;3.10;;
61638;SDS011;47544;52.484;4.658;2023-08-12T01:02:20;6.68;;;2.95;;
61638;SDS011;47544;52.484;4.658;2023-08-12T01:02:31;6.30;;;2.95;;
61638;SDS011;47544;52.484;4.658;2023-08-12T01:02:44;6.63;;;3.05;;
61638;SDS011;47544;52.484;4.658;2023-08-12T01:03:01;7.55;;;3.35;;
61638;SDS011;47544;52.484;4.658;2023-08-12T01:03:17;7.32;;;3.42;;
61638;SDS011;47544;52.484;4.658;2023-08-12T01:03:30;8.10;;;3.33;;
61638;SDS011;47544;52.484;4.658;2023-08-12T01:03:43;8.60;;;3.28;;
61638;SDS011;47544;52.484;4.658;2023-08-12T01:03:57;7.90;;;3.08;;
61638;SDS011;47544;52.484;4.658;2023-08-12T01:04:08;7.22;;;2.72;;
61638;SDS011;47544;52.484;4.658;2023-08-12T01:04:20;6.57;;;2.78;;
61638;SDS011;47544;52.484;4.658;2023-08-12T01:04:33;6.35;;;2.63;;
61638;SDS011;47544;52.484;4.658;2023-08-12T01:04:45;6.85;;;2.90;;
61638;SDS011;47544;52.484;4.658;2023-08-12T01:04:59;6.65;;;3.17;;
61638;SDS011;47544;52.484;4.658;2023-08-12T01:05:10;6.47;;;3.10;;
61638;SDS011;47544;52.484;4.658;2023-08-12T01:05:23;6.50;;;2.90;;
61638;SDS011;47544;52.484;4.658;2023-08-12T01:05:34;6.45;;;2.80;;
61638;SDS011;47544;52.484;4.658;2023-08-12T01:05:52;6.82;;;2.88;;
61638;SDS011;47544;52.484;4.658;2023-08-12T01:06:03;7.65;;;3.20;;
61638;SDS011;47544;52.484;4.658;2023-08-12T01:06:15;7.80;;;3.25;;
61638;SDS011;47544;52.484;4.658;2023-08-12T01:06:26;7.65;;;3.33;;
61638;SDS011;47544;52.484;4.658;2023-08-12T01:06:37;7.05;;;3.10;;
61638;SDS011;47544;52.484;4.658;2023-08-12T01:06:49;7.47;;;3.25;;
61638;SDS011;47544;52.484;4.658;2023-08-12T01:07:01;7.70;;;3.25;;
61638;SDS011;47544;52.484;4.658;2023-08-12T01:07:15;7.68;;;3.30;;
61638;SDS011;47544;52.484;4.658;2023-08-12T01:07:26;7.57;;;3.30;;
61638;SDS011;47544;52.484;4.658;2023-08-12T01:07:38;6.85;;;3.08;;
61638;SDS011;47544;52.484;4.658;2023-08-12T01:07:49;7.35;;;3.17;;
61638;SDS011;47544;52.484;4.658;2023-08-12T01:08:00;7.00;;;3.00;;
61638;SDS011;47544;52.484;4.658;2023-08-12T01:08:11;6.10;;;3.10;;
61638;SDS011;47544;52.484;4.658;2023-08-12T01:08:23;6.10;;;3.00;;
61638;SDS011;47544;52.484;4.658;2023-08-12T01:08:37;7.10;;;3.10;;
61638;SDS011;47544;52.484;4.658;2023-08-12T01:08:49;6.15;;;2.83;;
61638;SDS011;47544;52.484;4.658;2023-08-12T01:09:01;6.30;;;2.92;;
61638;SDS011;47544;52.484;4.658;2023-08-12T01:09:12;7.20;;;3.03;;
61638;SDS011;47544;52.484;4.658;2023-08-12T01:09:23;8.52;;;3.25;;
61638;SDS011;47544;52.484;4.658;2023-08-12T01:09:36;9.02;;;3.35;;
61638;SDS011;47544;52.484;4.658;2023-08-12T01:09:47;9.13;;;3.38;;
61638;SDS011;47544;52.484;4.658;2023-08-12T01:09:58;8.23;;;3.30;;
61638;SDS011;47544;52.484;4.658;2023-08-12T01:10:09;7.30;;;3.15;;
61638;SDS011;47544;52.484;4.658;2023-08-12T01:10:26;6.93;;;2.97;;
61638;SDS011;47544;52.484;4.658;2023-08-12T01:10:39;7.82;;;3.03;;
61638;SDS011;47544;52.484;4.658;2023-08-12T01:10:55;7.82;;;3.35;;
61638;SDS011;47544;52.484;4.658;2023-08-12T01:11:09;7.68;;;3.13;;
61638;SDS011;47544;52.484;4.658;2023-08-12T01:11:24;7.63;;;3.00;;
61638;SDS011;47544;52.484;4.658;2023-08-12T01:11:38;7.72;;;3.22;;
61638;SDS011;47544;52.484;4.658;2023-08-12T01:11:55;7.55;;;3.20;;
61638;SDS011;47544;52.484;4.658;2023-08-12T01:12:13;9.52;;;3.40;;
61638;SDS011;47544;52.484;4.658;2023-08-12T01:12:29;9.00;;;3.47;;
61638;SDS011;47544;52.484;4.658;2023-08-12T01:12:44;6.90;;;3.33;;
61638;SDS011;47544;52.484;4.658;2023-08-12T01:12:59;6.78;;;3.40;;